Time,TemperatureF,DewpointF,PressureIn,WindDirection,WindDirectionDegrees,WindSpeedMPH,WindSpeedGustMPH,Humidity,HourlyPrecipIn,Conditions,Clouds,dailyrainin,SoftwareType,DateUTC
2013-09-17 00:01:00,62.5,59.8,30.25,ENE,70,9.6,40.1,91,24.98,,,0.00,VWS V13.01,2013-09-17 04:01:00,
2013-09-17 00:06:00,62.7,59.7,30.25,ENE,66,7.1,40.1,90,24.98,,,0.00,VWS V13.01,2013-09-17 04:06:00,
2013-09-17 00:11:00,62.2,58.9,30.26,NNE,24,7.7,40.1,89,24.98,,,0.00,VWS V13.01,2013-09-17 04:11:00,
2013-09-17 00:16:00,62.1,58.7,30.26,East,83,5.1,40.1,88,24.98,,,0.00,VWS V13.01,2013-09-17 04:16:00,
2013-09-17 00:21:00,62.1,58.6,30.26,ENE,59,7.2,40.1,88,24.98,,,0.00,VWS V13.01,2013-09-17 04:21:00,
2013-09-17 00:26:00,62.0,58.5,30.26,East,79,11.7,40.1,88,24.98,,,0.00,VWS V13.01,2013-09-17 04:26:00,
2013-09-17 00:31:00,61.5,57.8,30.26,ENE,66,4.9,40.1,88,24.98,,,0.00,VWS V13.01,2013-09-17 04:31:00,
2013-09-17 00:36:00,61.5,57.8,30.26,NE,39,2.4,40.1,88,24.98,,,0.00,VWS V13.01,2013-09-17 04:36:00,
2013-09-17 00:41:00,61.3,57.9,30.27,NNE,20,11.2,40.1,88,24.98,,,0.00,VWS V13.01,2013-09-17 04:41:00,
2013-09-17 00:46:00,61.5,58.1,30.27,NNE,20,1.0,40.1,89,24.98,,,0.00,VWS V13.01,2013-09-17 04:46:00,
2013-09-17 00:51:00,61.1,57.8,30.27,NNW,340,2.8,40.1,89,24.98,,,0.00,VWS V13.01,2013-09-17 04:51:00,
2013-09-17 00:56:00,60.9,57.6,30.28,NE,49,5.7,40.1,89,24.98,,,0.00,VWS V13.01,2013-09-17 04:56:00,
2013-09-17 01:00:00,50.7,50.2,30.38,ESE,107,0.0,40.1,98,24.98,,,0.00,VWS V13.01,2013-09-17 05:00:00,
2013-09-17 01:01:00,60.6,57.2,30.28,East,87,6.4,40.1,89,24.98,,,0.00,VWS V13.01,2013-09-17 05:01:00,
2013-09-17 01:02:00,50.8,50.3,30.38,ESE,107,0.0,40.1,98,24.98,,,0.00,VWS V13.01,2013-09-17 05:02:00,
2013-09-17 01:03:00,50.7,50.2,30.38,ESE,107,0.0,40.1,98,24.98,,,0.00,VWS V13.01,2013-09-17 05:03:00,
2013-09-17 01:06:00,60.3,56.7,30.28,East,86,5.0,40.1,88,24.98,,,0.00,VWS V13.01,2013-09-17 05:06:00,
2013-09-17 01:11:00,60.2,56.6,30.28,East,84,7.8,40.1,88,24.98,,,0.00,VWS V13.01,2013-09-17 05:11:00,
2013-09-17 01:16:00,59.8,56.3,30.28,ENE,73,4.8,40.1,88,24.98,,,0.00,VWS V13.01,2013-09-17 05:16:00,
2013-09-17 01:21:00,59.8,56.3,30.28,ENE,65,4.3,40.1,88,24.98,,,0.00,VWS V13.01,2013-09-17 05:21:00,
2013-09-17 01:26:00,59.8,56.2,30.29,NE,53,2.3,40.1,88,24.98,,,0.00,VWS V13.01,2013-09-17 05:26:00,
2013-09-17 01:31:00,59.5,56.0,30.29,ENE,76,11.3,40.1,88,24.98,,,0.00,VWS V13.01,2013-09-17 05:31:00,
2013-09-17 01:36:00,59.2,55.6,30.29,East,89,12.2,40.1,88,24.98,,,0.00,VWS V13.01,2013-09-17 05:36:00,
2013-09-17 01:40:00,59.2,55.5,30.29,NE,45,8.1,40.1,87,24.98,,,0.00,VWS V13.01,2013-09-17 05:40:00,
2013-09-17 01:45:00,58.9,55.1,30.29,SE,125,4.0,40.1,87,24.98,,,0.00,VWS V13.01,2013-09-17 05:45:00,
2013-09-17 01:50:00,58.4,54.7,30.30,East,80,3.6,40.1,87,24.98,,,0.00,VWS V13.01,2013-09-17 05:50:00,
2013-09-17 01:55:00,58.6,54.9,30.30,ENE,70,12.2,40.1,88,24.98,,,0.00,VWS V13.01,2013-09-17 05:55:00,
2013-09-17 02:00:00,58.2,54.5,30.30,NE,38,9.4,40.1,87,24.98,,,0.00,VWS V13.01,2013-09-17 06:00:00,
2013-09-17 02:05:00,58.2,54.4,30.30,ENE,73,0.0,40.1,87,24.98,,,0.00,VWS V13.01,2013-09-17 06:05:00,
2013-09-17 02:10:00,57.9,54.2,30.30,East,79,8.4,40.1,87,24.98,,,0.00,VWS V13.01,2013-09-17 06:10:00,
2013-09-17 02:15:00,58.0,54.3,30.30,ENE,76,5.5,40.1,88,24.98,,,0.00,VWS V13.01,2013-09-17 06:15:00,
2013-09-17 02:20:00,57.7,54.1,30.30,ENE,69,0.0,40.1,88,24.98,,,0.00,VWS V13.01,2013-09-17 06:20:00,
2013-09-17 02:25:00,57.5,54.1,30.31,ENE,65,5.7,40.1,88,24.98,,,0.00,VWS V13.01,2013-09-17 06:25:00,
2013-09-17 02:30:00,57.3,53.9,30.31,ENE,58,3.0,40.1,88,24.98,,,0.00,VWS V13.01,2013-09-17 06:30:00,
2013-09-17 02:35:00,57.1,53.2,30.31,ESE,122,6.3,40.1,87,24.98,,,0.00,VWS V13.01,2013-09-17 06:35:00,
2013-09-17 02:41:00,57.0,52.8,30.31,East,98,8.9,40.1,86,24.98,,,0.00,VWS V13.01,2013-09-17 06:41:00,
2013-09-17 02:46:00,56.9,52.5,30.31,NNE,22,3.3,40.1,85,24.98,,,0.00,VWS V13.01,2013-09-17 06:46:00,
2013-09-17 02:51:00,56.8,52.4,30.31,North,11,3.2,40.1,85,24.98,,,0.00,VWS V13.01,2013-09-17 06:51:00,
2013-09-17 02:56:00,56.8,52.4,30.32,NE,37,5.0,40.1,85,24.98,,,0.00,VWS V13.01,2013-09-17 06:56:00,
2013-09-17 03:01:00,56.6,52.3,30.32,NE,51,2.5,40.1,85,24.98,,,0.00,VWS V13.01,2013-09-17 07:01:00,
2013-09-17 03:06:00,56.5,52.2,30.32,North,359,2.1,40.1,85,24.98,,,0.00,VWS V13.01,2013-09-17 07:06:00,
2013-09-17 03:11:00,56.2,51.8,30.32,ENE,66,10.4,40.1,85,24.98,,,0.00,VWS V13.01,2013-09-17 07:11:00,
2013-09-17 03:16:00,56.2,51.7,30.32,NNE,17,1.1,40.1,85,24.98,,,0.00,VWS V13.01,2013-09-17 07:16:00,
2013-09-17 03:21:00,56.0,51.3,30.32,NE,51,4.0,40.1,84,24.98,,,0.00,VWS V13.01,2013-09-17 07:21:00,
2013-09-17 03:26:00,55.7,50.9,30.32,ESE,115,2.3,40.1,84,24.98,,,0.00,VWS V13.01,2013-09-17 07:26:00,
2013-09-17 03:31:00,55.5,50.7,30.32,NNW,332,3.2,40.1,84,24.98,,,0.00,VWS V13.01,2013-09-17 07:31:00,
2013-09-17 03:36:00,55.3,50.2,30.32,North,6,4.7,40.1,83,24.98,,,0.00,VWS V13.01,2013-09-17 07:36:00,
2013-09-17 03:41:00,55.5,50.5,30.33,NNE,13,4.7,40.1,83,24.98,,,0.00,VWS V13.01,2013-09-17 07:41:00,
2013-09-17 03:46:00,55.3,50.1,30.33,NNE,27,8.9,40.1,83,24.98,,,0.00,VWS V13.01,2013-09-17 07:46:00,
2013-09-17 03:51:00,55.2,49.9,30.33,ENE,62,8.2,40.1,82,24.98,,,0.00,VWS V13.01,2013-09-17 07:51:00,
2013-09-17 03:56:00,55.1,49.8,30.33,NE,39,8.8,40.1,82,24.98,,,0.00,VWS V13.01,2013-09-17 07:56:00,
2013-09-17 04:01:00,55.1,49.9,30.33,ENE,72,4.2,40.1,83,24.98,,,0.00,VWS V13.01,2013-09-17 08:01:00,
2013-09-17 04:06:00,55.0,50.0,30.33,ENE,73,5.5,40.1,83,24.98,,,0.00,VWS V13.01,2013-09-17 08:06:00,
2013-09-17 04:11:00,55.0,50.2,30.33,ENE,68,3.9,40.1,84,24.98,,,0.00,VWS V13.01,2013-09-17 08:11:00,
2013-09-17 04:16:00,54.9,50.6,30.33,ENE,73,4.2,40.1,85,24.98,,,0.00,VWS V13.01,2013-09-17 08:16:00,
2013-09-17 04:21:00,54.8,50.8,30.34,NE,39,5.5,40.1,86,24.98,,,0.00,VWS V13.01,2013-09-17 08:21:00,
2013-09-17 04:26:00,54.7,51.0,30.34,East,91,6.3,40.1,87,24.98,,,0.00,VWS V13.01,2013-09-17 08:26:00,
2013-09-17 04:31:00,54.6,51.1,30.34,East,91,4.3,40.1,88,24.98,,,0.00,VWS V13.01,2013-09-17 08:31:00,
2013-09-17 04:35:00,54.4,50.5,30.35,NE,41,2.2,40.1,87,24.98,,,0.00,VWS V13.01,2013-09-17 08:35:00,
2013-09-17 04:40:00,54.0,49.8,30.34,NNE,27,3.0,40.1,86,24.98,,,0.00,VWS V13.01,2013-09-17 08:40:00,
2013-09-17 04:45:00,53.9,49.0,30.35,ENE,66,10.2,40.1,83,24.98,,,0.00,VWS V13.01,2013-09-17 08:45:00,
2013-09-17 04:50:00,53.6,48.5,30.35,ESE,107,6.0,40.1,83,24.98,,,0.00,VWS V13.01,2013-09-17 08:50:00,
2013-09-17 04:55:00,53.5,48.2,30.35,ENE,72,7.0,40.1,82,24.98,,,0.00,VWS V13.01,2013-09-17 08:55:00,
2013-09-17 05:00:00,53.4,48.2,30.35,NNE,32,11.6,40.1,82,24.98,,,0.00,VWS V13.01,2013-09-17 09:00:00,
2013-09-17 05:05:00,53.3,48.1,30.35,ENE,62,6.2,40.1,82,24.98,,,0.00,VWS V13.01,2013-09-17 09:05:00,
2013-09-17 05:10:00,53.3,48.0,30.35,ENE,65,6.0,40.1,82,24.98,,,0.00,VWS V13.01,2013-09-17 09:10:00,
2013-09-17 05:15:00,53.2,47.9,30.36,ENE,70,6.0,40.1,82,24.98,,,0.00,VWS V13.01,2013-09-17 09:15:00,
2013-09-17 05:20:00,53.2,48.0,30.36,NNE,28,7.1,40.1,82,24.98,,,0.00,VWS V13.01,2013-09-17 09:20:00,
2013-09-17 05:25:00,53.0,47.8,30.36,North,0,7.0,40.1,82,24.98,,,0.00,VWS V13.01,2013-09-17 09:25:00,
2013-09-17 05:30:00,52.9,47.6,30.36,NE,42,1.9,40.1,82,24.98,,,0.00,VWS V13.01,2013-09-17 09:30:00,
2013-09-17 05:35:00,52.8,47.5,30.36,ENE,75,3.6,40.1,82,24.98,,,0.00,VWS V13.01,2013-09-17 09:35:00,
2013-09-17 05:40:00,52.7,47.5,30.36,ENE,70,0.9,40.1,82,24.98,,,0.00,VWS V13.01,2013-09-17 09:40:00,
2013-09-17 05:45:00,52.7,47.5,30.36,North,0,0.4,40.1,82,24.98,,,0.00,VWS V13.01,2013-09-17 09:45:00,
2013-09-17 05:50:00,52.4,47.1,30.37,NE,45,1.4,40.1,82,24.98,,,0.00,VWS V13.01,2013-09-17 09:50:00,
2013-09-17 05:55:00,52.6,47.3,30.37,ENE,72,5.5,40.1,82,24.98,,,0.00,VWS V13.01,2013-09-17 09:55:00,
2013-09-17 06:00:00,52.3,47.1,30.37,East,86,3.0,40.1,82,24.98,,,0.00,VWS V13.01,2013-09-17 10:00:00,
2013-09-17 06:05:00,52.3,47.2,30.36,East,93,7.0,40.1,83,24.98,,,0.00,VWS V13.01,2013-09-17 10:05:00,
2013-09-17 06:10:00,52.3,47.1,30.37,NNE,27,1.6,40.1,82,24.98,,,0.00,VWS V13.01,2013-09-17 10:10:00,
2013-09-17 06:15:00,52.2,47.0,30.37,ENE,72,6.8,40.1,82,24.98,,,0.00,VWS V13.01,2013-09-17 10:15:00,
2013-09-17 06:20:00,52.1,47.0,30.37,ENE,60,5.4,40.1,83,24.98,,,0.00,VWS V13.01,2013-09-17 10:20:00,
2013-09-17 06:25:00,52.1,47.0,30.37,NE,55,9.1,40.1,83,24.98,,,0.00,VWS V13.01,2013-09-17 10:25:00,
2013-09-17 06:30:00,52.0,47.0,30.38,North,7,3.4,40.1,83,24.98,,,0.00,VWS V13.01,2013-09-17 10:30:00,
2013-09-17 06:35:00,51.9,47.0,30.38,ENE,68,7.0,40.1,83,24.98,,,0.00,VWS V13.01,2013-09-17 10:35:00,
2013-09-17 06:40:00,52.0,47.2,30.39,ESE,118,3.4,40.1,84,24.98,,,0.00,VWS V13.01,2013-09-17 10:40:00,
2013-09-17 06:45:00,51.8,47.1,30.39,North,357,1.6,40.1,84,24.98,,,0.00,VWS V13.01,2013-09-17 10:45:00,
2013-09-17 06:50:00,51.9,47.3,30.39,East,93,5.1,40.1,84,24.98,,,0.00,VWS V13.01,2013-09-17 10:50:00,
2013-09-17 06:55:00,51.9,47.4,30.39,East,82,3.3,40.1,85,24.98,,,0.00,VWS V13.01,2013-09-17 10:55:00,
2013-09-17 07:00:00,51.9,47.5,30.39,East,101,6.1,40.1,85,24.98,,,0.00,VWS V13.01,2013-09-17 11:00:00,
2013-09-17 07:05:00,51.7,47.3,30.39,ENE,66,7.0,40.1,85,24.98,,,0.00,VWS V13.01,2013-09-17 11:05:00,
2013-09-17 07:10:00,52.0,47.7,30.40,East,96,5.5,40.1,85,24.98,,,0.00,VWS V13.01,2013-09-17 11:10:00,
2013-09-17 07:15:00,52.3,47.9,30.40,NE,53,2.5,40.1,85,24.98,,,0.00,VWS V13.01,2013-09-17 11:15:00,
2013-09-17 07:21:00,52.4,48.1,30.40,ENE,77,12.6,40.1,85,24.98,,,0.00,VWS V13.01,2013-09-17 11:21:00,
2013-09-17 07:26:00,52.7,48.3,30.40,ENE,66,2.5,40.1,85,24.98,,,0.00,VWS V13.01,2013-09-17 11:26:00,
2013-09-17 07:31:00,52.6,48.3,30.41,NE,34,1.4,40.1,85,24.98,,,0.00,VWS V13.01,2013-09-17 11:31:00,
2013-09-17 07:35:00,53.0,48.7,30.41,NE,45,7.3,40.1,85,24.98,,,0.00,VWS V13.01,2013-09-17 11:35:00,
2013-09-17 07:40:00,53.5,49.0,30.41,ENE,72,6.3,40.1,85,24.98,,,0.00,VWS V13.01,2013-09-17 11:40:00,
2013-09-17 07:46:00,54.3,49.5,30.41,ESE,114,7.4,40.1,84,24.98,,,0.00,VWS V13.01,2013-09-17 11:46:00,
2013-09-17 07:51:00,54.5,49.6,30.40,East,91,8.3,40.1,84,24.98,,,0.00,VWS V13.01,2013-09-17 11:51:00,
2013-09-17 07:56:00,55.0,49.9,30.41,NE,56,4.6,40.1,83,24.98,,,0.00,VWS V13.01,2013-09-17 11:56:00,
2013-09-17 08:01:00,55.1,49.9,30.41,SE,138,2.1,40.1,83,24.98,,,0.00,VWS V13.01,2013-09-17 12:01:00,
2013-09-17 08:06:00,54.9,50.0,30.41,NE,42,1.2,40.1,83,24.98,,,0.00,VWS V13.01,2013-09-17 12:06:00,
2013-09-17 08:11:00,55.2,50.2,30.41,East,89,5.7,40.1,83,24.98,,,0.00,VWS V13.01,2013-09-17 12:11:00,
2013-09-17 08:16:00,55.6,50.2,30.41,ENE,70,5.5,40.1,82,24.98,,,0.00,VWS V13.01,2013-09-17 12:16:00,
2013-09-17 08:21:00,55.8,50.4,30.42,East,97,5.5,40.1,82,24.98,,,0.00,VWS V13.01,2013-09-17 12:21:00,
2013-09-17 08:26:00,56.4,50.8,30.42,NE,34,4.5,40.1,81,24.98,,,0.00,VWS V13.01,2013-09-17 12:26:00,
2013-09-17 08:31:00,56.8,50.8,30.42,East,82,6.7,40.1,80,24.98,,,0.00,VWS V13.01,2013-09-17 12:31:00,
2013-09-17 08:36:00,56.4,50.4,30.42,ENE,59,12.1,40.1,80,24.98,,,0.00,VWS V13.01,2013-09-17 12:36:00,
2013-09-17 08:41:00,56.4,50.5,30.42,East,89,0.0,40.1,81,24.98,,,0.00,VWS V13.01,2013-09-17 12:41:00,
2013-09-17 08:46:00,56.8,50.8,30.43,NE,49,10.7,40.1,80,24.98,,,0.00,VWS V13.01,2013-09-17 12:46:00,
2013-09-17 08:51:00,57.3,50.7,30.43,ENE,59,7.1,40.1,79,24.98,,,0.00,VWS V13.01,2013-09-17 12:51:00,
2013-09-17 08:56:00,57.2,50.5,30.43,ENE,75,7.8,40.1,78,24.98,,,0.00,VWS V13.01,2013-09-17 12:56:00,
2013-09-17 09:01:00,57.2,50.5,30.44,ENE,58,2.1,40.1,78,24.98,,,0.00,VWS V13.01,2013-09-17 13:01:00,
2013-09-17 09:06:00,57.4,50.6,30.44,East,89,9.4,40.1,78,24.98,,,0.00,VWS V13.01,2013-09-17 13:06:00,
2013-09-17 09:11:00,57.9,50.8,30.44,ENE,59,5.2,40.1,77,24.98,,,0.00,VWS V13.01,2013-09-17 13:11:00,
2013-09-17 09:16:00,58.4,51.3,30.44,NE,49,3.6,40.1,77,24.98,,,0.00,VWS V13.01,2013-09-17 13:16:00,
2013-09-17 09:21:00,58.7,51.3,30.44,NE,48,1.6,40.1,76,24.98,,,0.00,VWS V13.01,2013-09-17 13:21:00,
2013-09-17 09:26:00,59.0,51.3,30.44,ESE,103,3.0,40.1,76,24.98,,,0.00,VWS V13.01,2013-09-17 13:26:00,
2013-09-17 09:31:00,58.7,51.1,30.45,ENE,62,1.7,40.1,76,24.98,,,0.00,VWS V13.01,2013-09-17 13:31:00,
2013-09-17 09:36:00,59.0,51.3,30.45,ESE,111,1.9,40.1,76,24.98,,,0.00,VWS V13.01,2013-09-17 13:36:00,
2013-09-17 09:41:00,59.0,51.0,30.45,ENE,73,7.0,40.1,75,24.98,,,0.00,VWS V13.01,2013-09-17 13:41:00,
2013-09-17 09:46:00,59.4,51.5,30.45,East,97,6.9,40.1,75,24.98,,,0.00,VWS V13.01,2013-09-17 13:46:00,
2013-09-17 09:51:00,59.3,51.2,30.45,NNW,343,0.0,40.1,75,24.98,,,0.00,VWS V13.01,2013-09-17 13:51:00,
2013-09-17 09:56:00,59.7,51.3,30.45,NE,34,3.7,40.1,74,24.98,,,0.00,VWS V13.01,2013-09-17 13:56:00,
2013-09-17 10:01:00,59.6,51.1,30.45,ENE,72,3.4,40.1,73,24.98,,,0.00,VWS V13.01,2013-09-17 14:01:00,
2013-09-17 10:06:00,59.4,50.9,30.45,NNE,13,4.5,40.1,74,24.98,,,0.00,VWS V13.01,2013-09-17 14:06:00,
2013-09-17 10:11:00,59.8,50.9,30.45,East,82,7.0,40.1,72,24.98,,,0.00,VWS V13.01,2013-09-17 14:11:00,
2013-09-17 10:16:00,60.4,51.3,30.46,ENE,75,0.0,40.1,72,24.98,,,0.00,VWS V13.01,2013-09-17 14:16:00,
2013-09-17 10:21:00,60.1,51.1,30.46,North,11,0.0,40.1,72,24.98,,,0.00,VWS V13.01,2013-09-17 14:21:00,
2013-09-17 10:26:00,60.6,51.7,30.46,ENE,75,4.3,40.1,72,24.98,,,0.00,VWS V13.01,2013-09-17 14:26:00,
2013-09-17 10:31:00,60.7,51.1,30.46,ENE,60,5.2,40.1,71,24.98,,,0.00,VWS V13.01,2013-09-17 14:31:00,
2013-09-17 10:36:00,61.5,51.4,30.46,ENE,59,8.4,40.1,69,24.98,,,0.00,VWS V13.01,2013-09-17 14:36:00,
2013-09-17 10:41:00,62.6,52.1,30.46,ENE,69,0.0,40.1,68,24.98,,,0.00,VWS V13.01,2013-09-17 14:41:00,
2013-09-17 10:46:00,62.3,52.0,30.46,East,86,3.5,40.1,69,24.98,,,0.00,VWS V13.01,2013-09-17 14:46:00,
2013-09-17 10:51:00,62.1,51.9,30.46,NE,44,5.6,40.1,69,24.98,,,0.00,VWS V13.01,2013-09-17 14:51:00,
2013-09-17 10:56:00,62.0,51.7,30.46,NE,42,2.5,40.1,69,24.98,,,0.00,VWS V13.01,2013-09-17 14:56:00,
2013-09-17 11:01:00,61.5,51.4,30.46,NNE,24,0.0,40.1,69,24.98,,,0.00,VWS V13.01,2013-09-17 15:01:00,
2013-09-17 11:06:00,61.8,51.6,30.46,ENE,60,6.3,40.1,69,24.98,,,0.00,VWS V13.01,2013-09-17 15:06:00,
2013-09-17 11:11:00,61.9,51.5,30.46,NE,53,8.7,40.1,69,24.98,,,0.00,VWS V13.01,2013-09-17 15:11:00,
2013-09-17 11:16:00,61.8,51.2,30.46,NNE,32,2.4,40.1,68,24.98,,,0.00,VWS V13.01,2013-09-17 15:16:00,
2013-09-17 11:21:00,61.7,51.2,30.45,East,90,5.9,40.1,68,24.98,,,0.00,VWS V13.01,2013-09-17 15:21:00,
2013-09-17 11:26:00,61.7,51.0,30.45,East,97,7.6,40.1,68,24.98,,,0.00,VWS V13.01,2013-09-17 15:26:00,
2013-09-17 11:31:00,61.9,51.3,30.46,NE,39,4.8,40.1,68,24.98,,,0.00,VWS V13.01,2013-09-17 15:31:00,
2013-09-17 11:36:00,62.4,51.8,30.45,East,97,0.0,40.1,68,24.98,,,0.00,VWS V13.01,2013-09-17 15:36:00,
2013-09-17 11:41:00,62.7,51.8,30.45,ENE,73,8.1,40.1,67,24.98,,,0.00,VWS V13.01,2013-09-17 15:41:00,
2013-09-17 11:46:00,62.7,52.0,30.45,ENE,63,3.5,40.1,68,24.98,,,0.00,VWS V13.01,2013-09-17 15:46:00,
2013-09-17 11:51:00,62.4,52.0,30.45,ENE,77,2.0,40.1,69,24.98,,,0.00,VWS V13.01,2013-09-17 15:51:00,
2013-09-17 11:56:00,62.8,51.4,30.45,East,96,7.0,40.1,66,24.98,,,0.00,VWS V13.01,2013-09-17 15:56:00,
2013-09-17 12:01:00,62.9,51.8,30.45,NNW,330,0.0,40.1,67,24.98,,,0.00,VWS V13.01,2013-09-17 16:01:00,
2013-09-17 12:06:00,63.1,51.6,30.45,East,90,0.0,40.1,66,24.98,,,0.00,VWS V13.01,2013-09-17 16:06:00,
2013-09-17 12:11:00,63.3,51.5,30.44,ESE,117,7.3,40.1,65,24.98,,,0.00,VWS V13.01,2013-09-17 16:11:00,
2013-09-17 12:16:00,62.4,50.6,30.45,ENE,58,5.4,40.1,65,24.98,,,0.00,VWS V13.01,2013-09-17 16:16:00,
2013-09-17 12:21:00,61.6,50.5,30.45,ENE,73,5.1,40.1,67,24.98,,,0.00,VWS V13.01,2013-09-17 16:21:00,
2013-09-17 12:26:00,61.1,50.2,30.44,ESE,105,4.9,40.1,67,24.98,,,0.00,VWS V13.01,2013-09-17 16:26:00,
2013-09-17 12:31:00,61.0,50.4,30.45,ENE,75,8.6,40.1,68,24.98,,,0.00,VWS V13.01,2013-09-17 16:31:00,
2013-09-17 12:36:00,60.9,50.0,30.45,ESE,115,0.0,40.1,67,24.98,,,0.00,VWS V13.01,2013-09-17 16:36:00,
2013-09-17 12:41:00,61.1,50.6,30.45,ENE,77,4.0,40.1,68,24.98,,,0.00,VWS V13.01,2013-09-17 16:41:00,
2013-09-17 12:46:00,61.6,51.0,30.44,NE,51,0.0,40.1,68,24.98,,,0.00,VWS V13.01,2013-09-17 16:46:00,
2013-09-17 12:51:00,61.6,50.5,30.44,NE,56,5.3,40.1,67,24.98,,,0.00,VWS V13.01,2013-09-17 16:51:00,
2013-09-17 12:56:00,61.3,50.4,30.44,ENE,75,3.6,40.1,67,24.98,,,0.00,VWS V13.01,2013-09-17 16:56:00,
2013-09-17 13:01:00,61.3,50.8,30.44,East,86,4.8,40.1,68,24.98,,,0.00,VWS V13.01,2013-09-17 17:01:00,
2013-09-17 13:06:00,61.5,50.8,30.44,NE,56,1.4,40.1,68,24.98,,,0.00,VWS V13.01,2013-09-17 17:06:00,
2013-09-17 13:11:00,62.3,51.0,30.44,ENE,66,1.9,40.1,66,24.98,,,0.00,VWS V13.01,2013-09-17 17:11:00,
2013-09-17 13:16:00,62.5,51.1,30.44,NE,53,1.2,40.1,66,24.98,,,0.00,VWS V13.01,2013-09-17 17:16:00,
2013-09-17 13:21:00,63.1,51.6,30.44,NE,52,4.0,40.1,66,24.98,,,0.00,VWS V13.01,2013-09-17 17:21:00,
2013-09-17 13:26:00,63.2,51.6,30.44,ENE,75,7.6,40.1,66,24.98,,,0.00,VWS V13.01,2013-09-17 17:26:00,
2013-09-17 13:31:00,63.2,51.1,30.44,ENE,77,6.4,40.1,65,24.98,,,0.00,VWS V13.01,2013-09-17 17:31:00,
2013-09-17 13:36:00,62.8,51.0,30.44,NE,51,4.9,40.1,65,24.98,,,0.00,VWS V13.01,2013-09-17 17:36:00,
2013-09-17 13:41:00,62.9,51.1,30.44,NE,49,6.0,40.1,65,24.98,,,0.00,VWS V13.01,2013-09-17 17:41:00,
2013-09-17 13:46:00,62.5,50.6,30.43,ESE,104,3.5,40.1,65,24.98,,,0.00,VWS V13.01,2013-09-17 17:46:00,
2013-09-17 13:50:00,62.4,51.3,30.43,East,96,7.8,40.1,67,24.98,,,0.00,VWS V13.01,2013-09-17 17:50:00,
2013-09-17 13:55:00,62.5,51.0,30.43,ENE,62,0.0,40.1,66,24.98,,,0.00,VWS V13.01,2013-09-17 17:55:00,
2013-09-17 14:01:00,62.7,51.1,30.43,NE,37,0.0,40.1,66,24.98,,,0.00,VWS V13.01,2013-09-17 18:01:00,
2013-09-17 14:06:00,62.8,51.1,30.43,ESE,103,0.0,40.1,66,24.98,,,0.00,VWS V13.01,2013-09-17 18:06:00,
2013-09-17 14:11:00,62.9,51.0,30.43,NNW,340,0.0,40.1,65,24.98,,,0.00,VWS V13.01,2013-09-17 18:11:00,
2013-09-17 14:16:00,63.2,50.9,30.43,NE,48,5.8,40.1,64,24.98,,,0.00,VWS V13.01,2013-09-17 18:16:00,
2013-09-17 14:21:00,63.1,50.9,30.42,East,101,0.0,40.1,64,24.98,,,0.00,VWS V13.01,2013-09-17 18:21:00,
2013-09-17 14:26:00,63.1,51.2,30.42,NE,35,4.8,40.1,65,24.98,,,0.00,VWS V13.01,2013-09-17 18:26:00,
2013-09-17 14:31:00,62.8,51.0,30.42,ENE,69,1.8,40.1,65,24.98,,,0.00,VWS V13.01,2013-09-17 18:31:00,
2013-09-17 14:36:00,63.1,51.1,30.42,ESE,110,0.0,40.1,65,24.98,,,0.00,VWS V13.01,2013-09-17 18:36:00,
2013-09-17 14:41:00,63.3,51.3,30.42,ESE,105,4.8,40.1,65,24.98,,,0.00,VWS V13.01,2013-09-17 18:41:00,
2013-09-17 14:46:00,62.4,50.8,30.42,South,190,1.5,40.1,66,24.98,,,0.00,VWS V13.01,2013-09-17 18:46:00,
2013-09-17 14:51:00,62.3,51.0,30.42,NNE,15,0.0,40.1,66,24.98,,,0.00,VWS V13.01,2013-09-17 18:51:00,
2013-09-17 14:56:00,62.8,51.4,30.42,ESE,110,0.0,40.1,66,24.98,,,0.00,VWS V13.01,2013-09-17 18:56:00,
2013-09-17 15:01:00,63.1,51.8,30.41,East,96,3.3,40.1,66,24.98,,,0.00,VWS V13.01,2013-09-17 19:01:00,
2013-09-17 15:06:00,62.5,51.0,30.41,SE,125,3.0,40.1,66,24.98,,,0.00,VWS V13.01,2013-09-17 19:06:00,
2013-09-17 15:11:00,62.3,51.0,30.41,NE,38,2.9,40.1,67,24.98,,,0.00,VWS V13.01,2013-09-17 19:11:00,
2013-09-17 15:16:00,61.8,50.4,30.41,SSE,162,5.3,40.1,66,24.98,,,0.00,VWS V13.01,2013-09-17 19:16:00,
2013-09-17 15:21:00,61.8,51.0,30.40,SSE,152,0.2,40.1,68,24.98,,,0.00,VWS V13.01,2013-09-17 19:21:00,
2013-09-17 15:26:00,61.7,50.8,30.40,SSE,148,1.4,40.1,68,24.98,,,0.00,VWS V13.01,2013-09-17 19:26:00,
2013-09-17 15:31:00,61.6,51.1,30.40,East,80,0.0,40.1,68,24.98,,,0.00,VWS V13.01,2013-09-17 19:31:00,
2013-09-17 15:36:00,61.5,50.9,30.40,SSW,205,0.0,40.1,68,24.98,,,0.00,VWS V13.01,2013-09-17 19:36:00,
2013-09-17 15:41:00,61.3,50.8,30.40,South,184,2.8,40.1,68,24.98,,,0.00,VWS V13.01,2013-09-17 19:41:00,
2013-09-17 15:46:00,61.2,50.8,30.40,SW,215,0.0,40.1,69,24.98,,,0.00,VWS V13.01,2013-09-17 19:46:00,
2013-09-17 15:51:00,61.2,50.8,30.40,South,179,3.0,40.1,68,24.98,,,0.00,VWS V13.01,2013-09-17 19:51:00,
2013-09-17 15:56:00,61.2,51.0,30.40,SSE,167,2.1,40.1,69,24.98,,,0.00,VWS V13.01,2013-09-17 19:56:00,
2013-09-17 16:01:00,61.2,51.0,30.40,East,100,0.0,40.1,69,24.98,,,0.00,VWS V13.01,2013-09-17 20:01:00,
2013-09-17 16:06:00,61.2,51.2,30.40,ESE,110,0.0,40.1,70,24.98,,,0.00,VWS V13.01,2013-09-17 20:06:00,
2013-09-17 16:11:00,61.3,51.2,30.40,South,176,0.0,40.1,70,24.98,,,0.00,VWS V13.01,2013-09-17 20:11:00,
2013-09-17 16:16:00,61.5,51.6,30.40,South,176,0.0,40.1,70,24.98,,,0.00,VWS V13.01,2013-09-17 20:16:00,
2013-09-17 16:21:00,61.4,51.1,30.40,East,87,0.0,40.1,69,24.98,,,0.00,VWS V13.01,2013-09-17 20:21:00,
2013-09-17 16:26:00,61.3,50.9,30.40,SE,139,2.5,40.1,69,24.98,,,0.00,VWS V13.01,2013-09-17 20:26:00,
2013-09-17 16:31:00,61.3,51.2,30.39,SE,128,5.4,40.1,69,24.98,,,0.00,VWS V13.01,2013-09-17 20:31:00,
2013-09-17 16:36:00,61.1,50.8,30.39,ESE,120,0.0,40.1,69,24.98,,,0.00,VWS V13.01,2013-09-17 20:36:00,
2013-09-17 16:41:00,61.1,50.8,30.40,East,80,0.0,40.1,69,24.98,,,0.00,VWS V13.01,2013-09-17 20:41:00,
2013-09-17 16:46:00,61.2,50.9,30.39,NNE,15,0.0,40.1,69,24.98,,,0.00,VWS V13.01,2013-09-17 20:46:00,
2013-09-17 16:51:00,61.3,51.1,30.39,NNE,15,0.0,40.1,69,24.98,,,0.00,VWS V13.01,2013-09-17 20:51:00,
2013-09-17 16:56:00,61.5,51.3,30.39,SSE,152,0.0,40.1,69,24.98,,,0.00,VWS V13.01,2013-09-17 20:56:00,
2013-09-17 17:01:00,61.3,51.2,30.39,SSE,162,1.7,40.1,69,24.98,,,0.00,VWS V13.01,2013-09-17 21:01:00,
2013-09-17 17:06:00,61.3,51.1,30.39,SE,138,0.0,40.1,69,24.98,,,0.00,VWS V13.01,2013-09-17 21:06:00,
2013-09-17 17:11:00,61.5,51.2,30.39,NE,42,0.7,40.1,69,24.98,,,0.00,VWS V13.01,2013-09-17 21:11:00,
2013-09-17 17:16:00,61.4,51.3,30.39,ESE,110,2.0,40.1,69,24.98,,,0.00,VWS V13.01,2013-09-17 21:16:00,
2013-09-17 17:21:00,61.3,51.2,30.39,ENE,60,0.0,40.1,69,24.98,,,0.00,VWS V13.01,2013-09-17 21:21:00,
2013-09-17 17:26:00,61.2,51.2,30.39,SE,139,1.9,40.1,70,24.98,,,0.00,VWS V13.01,2013-09-17 21:26:00,
2013-09-17 17:31:00,61.1,51.5,30.39,SSE,160,3.4,40.1,70,24.98,,,0.00,VWS V13.01,2013-09-17 21:31:00,
2013-09-17 17:36:00,61.1,51.6,30.39,ESE,107,0.0,40.1,71,24.98,,,0.00,VWS V13.01,2013-09-17 21:36:00,
2013-09-17 17:41:00,61.1,51.5,30.39,ESE,121,1.5,40.1,71,24.98,,,0.00,VWS V13.01,2013-09-17 21:41:00,
2013-09-17 17:46:00,61.0,51.7,30.39,ESE,112,0.0,40.1,71,24.98,,,0.00,VWS V13.01,2013-09-17 21:46:00,
2013-09-17 17:51:00,60.9,51.4,30.39,ESE,107,2.9,40.1,71,24.98,,,0.00,VWS V13.01,2013-09-17 21:51:00,
2013-09-17 17:56:00,61.0,51.6,30.39,ESE,117,0.0,40.1,71,24.98,,,0.00,VWS V13.01,2013-09-17 21:56:00,
2013-09-17 18:01:00,60.8,51.2,30.39,East,80,0.0,40.1,71,24.98,,,0.00,VWS V13.01,2013-09-17 22:01:00,
2013-09-17 18:06:00,60.6,51.2,30.39,East,80,0.0,40.1,71,24.98,,,0.00,VWS V13.01,2013-09-17 22:06:00,
2013-09-17 18:11:00,60.7,51.4,30.39,ESE,107,0.0,40.1,71,24.98,,,0.00,VWS V13.01,2013-09-17 22:11:00,
2013-09-17 18:16:00,60.6,51.7,30.39,ESE,107,0.0,40.1,72,24.98,,,0.00,VWS V13.01,2013-09-17 22:16:00,
2013-09-17 18:21:00,60.6,52.0,30.39,ESE,107,0.0,40.1,73,24.98,,,0.00,VWS V13.01,2013-09-17 22:21:00,
2013-09-17 18:26:00,60.5,52.0,30.39,ESE,107,0.0,40.1,73,24.98,,,0.00,VWS V13.01,2013-09-17 22:26:00,
2013-09-17 18:31:00,60.5,52.1,30.39,ESE,107,0.0,40.1,74,24.98,,,0.00,VWS V13.01,2013-09-17 22:31:00,
2013-09-17 18:36:00,60.4,52.2,30.39,ESE,107,0.0,40.1,74,24.98,,,0.00,VWS V13.01,2013-09-17 22:36:00,
2013-09-17 18:41:00,60.4,52.6,30.39,ESE,107,0.0,40.1,76,24.98,,,0.00,VWS V13.01,2013-09-17 22:41:00,
2013-09-17 18:46:00,60.3,52.5,30.38,ESE,107,0.0,40.1,76,24.98,,,0.00,VWS V13.01,2013-09-17 22:46:00,
2013-09-17 18:51:00,60.1,52.7,30.38,ESE,107,0.0,40.1,76,24.98,,,0.00,VWS V13.01,2013-09-17 22:51:00,
2013-09-17 18:56:00,59.9,52.6,30.38,ESE,107,0.0,40.1,77,24.98,,,0.00,VWS V13.01,2013-09-17 22:56:00,
2013-09-17 19:01:00,59.3,52.7,30.38,ESE,107,0.0,40.1,79,24.98,,,0.00,VWS V13.01,2013-09-17 23:01:00,
2013-09-17 19:06:00,58.9,52.7,30.38,ESE,107,0.0,40.1,80,24.98,,,0.00,VWS V13.01,2013-09-17 23:06:00,
2013-09-17 19:11:00,58.3,52.4,30.38,ESE,107,0.0,40.1,81,24.98,,,0.00,VWS V13.01,2013-09-17 23:11:00,
2013-09-17 19:16:00,58.1,52.5,30.37,ESE,107,0.0,40.1,82,24.98,,,0.00,VWS V13.01,2013-09-17 23:16:00,
2013-09-17 19:21:00,57.7,52.5,30.38,ESE,107,0.0,40.1,83,24.98,,,0.00,VWS V13.01,2013-09-17 23:21:00,
2013-09-17 19:26:00,57.5,52.4,30.38,ESE,107,0.0,40.1,83,24.98,,,0.00,VWS V13.01,2013-09-17 23:26:00,
2013-09-17 19:31:00,57.3,52.5,30.38,ESE,107,0.0,40.1,84,24.98,,,0.00,VWS V13.01,2013-09-17 23:31:00,
2013-09-17 19:36:00,57.1,52.5,30.38,ESE,107,0.0,40.1,84,24.98,,,0.00,VWS V13.01,2013-09-17 23:36:00,
2013-09-17 19:41:00,56.9,52.5,30.38,ESE,107,0.0,40.1,85,24.98,,,0.00,VWS V13.01,2013-09-17 23:41:00,
2013-09-17 19:46:00,56.6,52.3,30.38,ESE,107,0.0,40.1,86,24.98,,,0.00,VWS V13.01,2013-09-17 23:46:00,
2013-09-17 19:51:00,56.5,52.4,30.38,ESE,107,0.0,40.1,86,24.98,,,0.00,VWS V13.01,2013-09-17 23:51:00,
2013-09-17 19:56:00,56.1,52.1,30.38,ESE,107,0.0,40.1,86,24.98,,,0.00,VWS V13.01,2013-09-17 23:56:00,
2013-09-17 20:01:00,56.1,52.3,30.39,ESE,107,0.0,40.1,87,24.98,,,0.00,VWS V13.01,2013-09-18 00:01:00,
2013-09-17 20:06:00,56.1,52.3,30.39,ESE,107,0.0,40.1,87,24.98,,,0.00,VWS V13.01,2013-09-18 00:06:00,
2013-09-17 20:11:00,55.7,52.2,30.39,ESE,107,0.0,40.1,88,24.98,,,0.00,VWS V13.01,2013-09-18 00:11:00,
2013-09-17 20:16:00,55.6,52.3,30.39,ESE,107,0.0,40.1,88,24.98,,,0.00,VWS V13.01,2013-09-18 00:16:00,
2013-09-17 20:21:00,55.6,52.3,30.39,ESE,107,0.0,40.1,89,24.98,,,0.00,VWS V13.01,2013-09-18 00:21:00,
2013-09-17 20:26:00,55.4,52.3,30.39,ESE,107,0.0,40.1,89,24.98,,,0.00,VWS V13.01,2013-09-18 00:26:00,
2013-09-17 20:31:00,55.2,52.2,30.39,ESE,107,0.0,40.1,90,24.98,,,0.00,VWS V13.01,2013-09-18 00:31:00,
2013-09-17 20:36:00,55.2,52.3,30.39,ESE,107,0.0,40.1,90,24.98,,,0.00,VWS V13.01,2013-09-18 00:36:00,
2013-09-17 20:41:00,55.1,52.1,30.39,ESE,107,0.0,40.1,90,24.98,,,0.00,VWS V13.01,2013-09-18 00:41:00,
2013-09-17 20:46:00,54.8,51.9,30.39,ESE,107,0.0,40.1,90,24.98,,,0.00,VWS V13.01,2013-09-18 00:46:00,
2013-09-17 20:51:00,54.6,51.9,30.39,ESE,107,0.0,40.1,90,24.98,,,0.00,VWS V13.01,2013-09-18 00:51:00,
2013-09-17 20:56:00,54.4,52.0,30.39,ESE,107,0.0,40.1,92,24.98,,,0.00,VWS V13.01,2013-09-18 00:56:00,
2013-09-17 21:01:00,54.4,52.0,30.39,ESE,107,0.0,40.1,91,24.98,,,0.00,VWS V13.01,2013-09-18 01:01:00,
2013-09-17 21:06:00,53.9,51.6,30.39,ESE,107,0.0,40.1,92,24.98,,,0.00,VWS V13.01,2013-09-18 01:06:00,
2013-09-17 21:11:00,54.0,51.8,30.39,ESE,107,0.0,40.1,92,24.98,,,0.00,VWS V13.01,2013-09-18 01:11:00,
2013-09-17 21:16:00,53.9,51.8,30.39,ESE,107,0.0,40.1,93,24.98,,,0.00,VWS V13.01,2013-09-18 01:16:00,
2013-09-17 21:21:00,53.6,51.6,30.38,ESE,107,0.0,40.1,93,24.98,,,0.00,VWS V13.01,2013-09-18 01:21:00,
2013-09-17 21:26:00,53.5,51.7,30.38,ESE,107,0.0,40.1,93,24.98,,,0.00,VWS V13.01,2013-09-18 01:26:00,
2013-09-17 21:31:00,53.4,51.7,30.39,ESE,107,0.0,40.1,94,24.98,,,0.00,VWS V13.01,2013-09-18 01:31:00,
2013-09-17 21:36:00,53.1,51.6,30.38,ESE,107,0.0,40.1,95,24.98,,,0.00,VWS V13.01,2013-09-18 01:36:00,
2013-09-17 21:41:00,53.0,51.6,30.39,ESE,107,0.0,40.1,95,24.98,,,0.00,VWS V13.01,2013-09-18 01:41:00,
2013-09-17 21:46:00,52.9,51.6,30.39,ESE,107,0.0,40.1,95,24.98,,,0.00,VWS V13.01,2013-09-18 01:46:00,
2013-09-17 21:51:00,53.0,51.8,30.39,ESE,107,0.0,40.1,96,24.98,,,0.00,VWS V13.01,2013-09-18 01:51:00,
2013-09-17 21:56:00,52.8,51.6,30.39,ESE,107,0.0,40.1,96,24.98,,,0.00,VWS V13.01,2013-09-18 01:56:00,
2013-09-17 22:01:00,52.8,51.7,30.39,ESE,107,0.0,40.1,96,24.98,,,0.00,VWS V13.01,2013-09-18 02:01:00,
2013-09-17 22:06:00,52.7,51.6,30.39,ESE,107,0.0,40.1,96,24.98,,,0.00,VWS V13.01,2013-09-18 02:06:00,
2013-09-17 22:11:00,52.4,51.3,30.39,ESE,107,0.0,40.1,96,24.98,,,0.00,VWS V13.01,2013-09-18 02:11:00,
2013-09-17 22:16:00,52.2,51.2,30.38,ESE,107,0.0,40.1,96,24.98,,,0.00,VWS V13.01,2013-09-18 02:16:00,
2013-09-17 22:21:00,52.2,51.2,30.39,ESE,107,0.0,40.1,96,24.98,,,0.00,VWS V13.01,2013-09-18 02:21:00,
2013-09-17 22:26:00,52.0,51.0,30.38,ESE,107,0.0,40.1,96,24.98,,,0.00,VWS V13.01,2013-09-18 02:26:00,
2013-09-17 22:31:00,52.2,51.3,30.38,ESE,107,0.0,40.1,97,24.98,,,0.00,VWS V13.01,2013-09-18 02:31:00,
2013-09-17 22:36:00,52.0,51.1,30.38,ESE,107,0.0,40.1,97,24.98,,,0.00,VWS V13.01,2013-09-18 02:36:00,
2013-09-17 22:41:00,51.9,51.0,30.38,ESE,107,0.0,40.1,97,24.98,,,0.00,VWS V13.01,2013-09-18 02:41:00,
2013-09-17 22:46:00,51.9,51.0,30.38,ESE,107,0.0,40.1,97,24.98,,,0.00,VWS V13.01,2013-09-18 02:46:00,
2013-09-17 22:51:00,51.7,50.8,30.38,ESE,107,0.0,40.1,97,24.98,,,0.00,VWS V13.01,2013-09-18 02:51:00,
2013-09-17 22:56:00,51.6,50.8,30.38,ESE,107,0.0,40.1,97,24.98,,,0.00,VWS V13.01,2013-09-18 02:56:00,
2013-09-17 23:01:00,51.5,50.7,30.39,ESE,107,0.0,40.1,97,24.98,,,0.00,VWS V13.01,2013-09-18 03:01:00,
2013-09-17 23:06:00,51.5,50.7,30.39,ESE,107,0.0,40.1,97,24.98,,,0.00,VWS V13.01,2013-09-18 03:06:00,
2013-09-17 23:11:00,51.2,50.5,30.38,ESE,107,0.0,40.1,98,24.98,,,0.00,VWS V13.01,2013-09-18 03:11:00,
2013-09-17 23:16:00,50.9,50.2,30.38,ESE,107,0.0,40.1,98,24.98,,,0.00,VWS V13.01,2013-09-18 03:16:00,
2013-09-17 23:21:00,50.9,50.3,30.39,ESE,107,0.0,40.1,98,24.98,,,0.00,VWS V13.01,2013-09-18 03:21:00,
2013-09-17 23:26:00,50.9,50.3,30.38,ESE,107,0.0,40.1,98,24.98,,,0.00,VWS V13.01,2013-09-18 03:26:00,
2013-09-17 23:31:00,50.9,50.3,30.38,ESE,107,0.0,40.1,98,24.98,,,0.00,VWS V13.01,2013-09-18 03:31:00,
2013-09-17 23:36:00,50.9,50.4,30.38,ESE,107,0.0,40.1,98,24.98,,,0.00,VWS V13.01,2013-09-18 03:36:00,
2013-09-17 23:41:00,50.7,50.2,30.38,ESE,107,0.0,40.1,98,24.98,,,0.00,VWS V13.01,2013-09-18 03:41:00,
2013-09-17 23:46:00,50.6,50.1,30.38,ESE,107,0.0,40.1,98,24.98,,,0.00,VWS V13.01,2013-09-18 03:46:00,
2013-09-17 23:51:00,50.7,50.2,30.38,ESE,107,0.0,40.1,98,24.98,,,0.00,VWS V13.01,2013-09-18 03:51:00,
2013-09-17 23:56:00,50.9,50.4,30.38,ESE,107,0.0,40.1,98,24.98,,,0.00,VWS V13.01,2013-09-18 03:56:00,